Time;durP1;ratioP1;P1;durP2;ratioP2;P2;SDS_P1;SDS_P2;PMS_P1;PMS_P2;Temp;Humidity;BMP_temperature;BMP_pressure;BME280_temperature;BME280_humidity;BME280_pressure;Samples;Min_cycle;Max_cycle;Signal;HPM_P1;HPM_P2
2021/07/11 00:00:08;;;;;;;2.00;1.60;;;;;;;17.17;62.35;101103.31;349644;27;114109;-66
2021/07/11 00:00:23;;;;;;;2.28;1.77;;;;;;;17.02;62.77;101091.88;348611;27;137615;-65
2021/07/11 00:00:36;;;;;;;3.00;1.90;;;;;;;17.00;63.04;101099.97;349283;28;115766;-64
2021/07/11 00:00:49;;;;;;;2.47;1.90;;;;;;;17.04;62.31;101106.81;351774;28;46049;-64
2021/07/11 00:01:01;;;;;;;2.50;1.80;;;;;;;17.09;63.00;101102.03;350842;28;70425;-64
2021/07/11 00:01:16;;;;;;;2.45;1.80;;;;;;;17.10;62.61;101103.75;351026;28;69694;-68
2021/07/11 00:01:29;;;;;;;2.13;1.80;;;;;;;17.18;62.95;101097.84;347850;28;114827;-66
2021/07/11 00:01:44;;;;;;;1.90;1.70;;;;;;;17.11;62.66;101100.09;349548;28;68989;-64
2021/07/11 00:01:57;;;;;;;2.15;1.85;;;;;;;17.02;62.83;101098.06;347211;28;137781;-66
2021/07/11 00:02:10;;;;;;;2.42;1.90;;;;;;;17.08;62.64;101102.97;349687;28;67879;-64
2021/07/11 00:02:23;;;;;;;3.05;2.00;;;;;;;17.17;62.81;101103.31;349331;28;70055;-65
2021/07/11 00:02:36;;;;;;;2.58;1.92;;;;;;;17.18;62.72;101097.00;349946;28;67846;-64
2021/07/11 00:02:48;;;;;;;2.28;1.90;;;;;;;17.22;63.05;101107.34;350952;28;69764;-64
2021/07/11 00:03:01;;;;;;;2.08;1.77;;;;;;;17.27;62.45;101102.56;349648;28;68834;-65
2021/07/11 00:03:14;;;;;;;2.03;1.80;;;;;;;17.32;62.25;101098.72;350375;28;44856;-64
2021/07/11 00:03:26;;;;;;;2.67;1.90;;;;;;;17.32;62.44;101099.56;349362;28;68922;-65
2021/07/11 00:03:39;;;;;;;2.55;1.73;;;;;;;17.27;62.19;101104.38;349610;28;67796;-65
2021/07/11 00:03:52;;;;;;;1.90;1.70;;;;;;;17.33;62.26;101098.59;348131;28;67878;-64
2021/07/11 00:04:04;;;;;;;2.45;1.88;;;;;;;17.36;62.67;101105.53;347539;28;45421;-64
2021/07/11 00:04:17;;;;;;;2.80;2.03;;;;;;;17.36;62.44;101101.06;346815;28;68985;-64
2021/07/11 00:04:30;;;;;;;2.45;2.00;;;;;;;17.33;62.10;101100.44;349209;28;67943;-66
2021/07/11 00:04:42;;;;;;;2.17;1.92;;;;;;;17.35;62.24;101098.50;349373;28;70001;-65
2021/07/11 00:04:55;;;;;;;2.64;2.08;;;;;;;17.30;62.21;101093.50;350322;28;45767;-65
2021/07/11 00:05:12;;;;;;;2.75;2.13;;;;;;;17.29;62.13;101097.94;348953;28;45504;-64
2021/07/11 00:05:27;;;;;;;2.20;1.98;;;;;;;17.24;62.45;101093.91;345621;28;139116;-67
2021/07/11 00:05:40;;;;;;;2.30;1.88;;;;;;;17.25;62.55;101092.94;346749;28;114033;-64
2021/07/11 00:05:52;;;;;;;3.08;1.80;;;;;;;17.29;62.51;101092.63;348763;28;70093;-64
2021/07/11 00:06:05;;;;;;;2.97;1.80;;;;;;;17.26;62.14;101086.66;348689;28;66323;-64
2021/07/11 00:06:18;;;;;;;4.07;1.83;;;;;;;17.28;62.24;101095.38;350400;28;46140;-64
2021/07/11 00:06:34;;;;;;;3.65;1.90;;;;;;;17.29;62.24;101100.63;348603;28;68731;-65
2021/07/11 00:06:46;;;;;;;2.50;2.08;;;;;;;17.27;62.27;101091.88;347168;28;137758;-64
2021/07/11 00:06:59;;;;;;;2.20;2.00;;;;;;;17.26;62.24;101090.16;349422;28;70113;-64
2021/07/11 00:07:14;;;;;;;2.00;1.80;;;;;;;17.28;62.67;101098.94;349568;28;68748;-64
2021/07/11 00:07:29;;;;;;;2.20;1.77;;;;;;;17.32;62.39;101099.56;347346;28;114899;-64
2021/07/11 00:07:45;;;;;;;2.90;1.80;;;;;;;17.36;62.39;101094.88;347810;28;115611;-64
2021/07/11 00:07:58;;;;;;;3.08;1.80;;;;;;;17.35;62.51;101094.03;347004;28;137605;-64
2021/07/11 00:08:10;;;;;;;2.90;1.80;;;;;;;17.36;62.53;101095.72;350575;28;69016;-64
2021/07/11 00:08:23;;;;;;;2.74;1.80;;;;;;;17.26;62.32;101098.16;351860;28;45156;-65
2021/07/11 00:08:38;;;;;;;2.10;1.70;;;;;;;17.24;62.62;101094.78;352938;27;47016;-65
2021/07/11 00:08:53;;;;;;;2.88;1.73;;;;;;;17.15;62.95;101100.75;350139;27;136988;-64
2021/07/11 00:09:06;;;;;;;3.00;1.70;;;;;;;17.17;63.26;101096.13;352431;27;68979;-64
2021/07/11 00:09:22;;;;;;;2.08;1.80;;;;;;;17.20;62.86;101095.06;349951;27;138086;-66
2021/07/11 00:09:37;;;;;;;2.53;1.75;;;;;;;17.16;63.03;101090.91;353416;27;47156;-64
2021/07/11 00:09:51;;;;;;;2.63;1.80;;;;;;;17.19;62.96;101096.91;349936;27;137854;-72
2021/07/11 00:10:05;;;;;;;2.20;1.80;;;;;;;17.19;62.84;101101.41;352593;27;68374;-67
2021/07/11 00:10:19;;;;;;;2.28;1.73;;;;;;;17.21;63.26;101102.13;351647;27;93076;-69
2021/07/11 00:10:32;;;;;;;1.90;1.70;;;;;;;17.22;62.93;101098.50;351639;27;93446;-71
2021/07/11 00:10:45;;;;;;;2.10;1.85;;;;;;;17.25;62.74;101098.28;352724;27;70492;-65
2021/07/11 00:11:01;;;;;;;2.20;1.85;;;;;;;17.26;62.77;101100.00;351725;27;91263;-65
2021/07/11 00:11:13;;;;;;;2.35;1.80;;;;;;;17.27;62.68;101101.72;351029;27;114085;-71
2021/07/11 00:11:26;;;;;;;2.47;1.73;;;;;;;17.25;62.88;101103.63;353266;27;45964;-65
2021/07/11 00:11:38;;;;;;;2.42;1.80;;;;;;;17.21;62.71;101102.13;352149;27;68899;-70
2021/07/11 00:11:51;;;;;;;2.35;1.75;;;;;;;17.13;62.97;101095.50;352424;27;69017;-67
2021/07/11 00:12:04;;;;;;;2.40;1.92;;;;;;;17.09;63.07;101099.34;353098;27;46015;-66
2021/07/11 00:12:20;;;;;;;2.47;2.13;;;;;;;17.12;63.30;101099.13;350304;28;91033;-64
2021/07/11 00:12:34;;;;;;;3.28;2.05;;;;;;;17.15;63.22;101098.06;348342;28;136596;-66
2021/07/11 00:12:48;;;;;;;3.35;2.10;;;;;;;17.15;63.31;101097.22;350986;28;70118;-65
2021/07/11 00:13:01;;;;;;;3.28;2.05;;;;;;;17.05;63.36;101100.53;350035;28;92988;-65
2021/07/11 00:13:16;;;;;;;2.70;1.90;;;;;;;16.94;63.68;101089.75;348865;28;137700;-66
2021/07/11 00:13:29;;;;;;;2.20;2.00;;;;;;;16.94;64.04;101097.75;352422;27;46638;-69
2021/07/11 00:13:42;;;;;;;3.30;1.90;;;;;;;16.99;63.86;101098.25;351015;28;70085;-69
2021/07/11 00:13:55;;;;;;;3.34;1.82;;;;;;;17.07;63.81;101098.59;351808;28;47370;-66
2021/07/11 00:14:08;;;;;;;2.83;1.77;;;;;;;17.12;63.72;101099.13;351743;28;47554;-69
2021/07/11 00:14:21;;;;;;;3.00;1.83;;;;;;;17.17;63.59;101097.97;350798;28;70099;-68
2021/07/11 00:14:33;;;;;;;3.42;1.95;;;;;;;17.20;63.56;101095.06;350909;28;68506;-69
2021/07/11 00:14:46;;;;;;;4.28;2.20;;;;;;;17.24;63.21;101096.56;349644;28;69752;-64
2021/07/11 00:14:59;;;;;;;4.35;2.20;;;;;;;17.28;63.15;101100.72;350261;28;45888;-64
2021/07/11 00:15:17;;;;;;;3.10;2.00;;;;;;;17.28;63.13;101096.25;348286;28;70567;-64
2021/07/11 00:15:33;;;;;;;1.95;1.75;;;;;;;17.26;63.18;101095.50;345629;28;137329;-64
2021/07/11 00:15:45;;;;;;;2.00;1.80;;;;;;;17.24;63.23;101096.56;349019;28;69906;-64
2021/07/11 00:15:58;;;;;;;2.10;1.90;;;;;;;17.27;63.29;101099.03;349932;28;68910;-64
2021/07/11 00:16:11;;;;;;;2.53;1.98;;;;;;;17.27;63.25;101091.03;349410;28;68994;-64
2021/07/11 00:16:26;;;;;;;3.25;1.80;;;;;;;17.29;63.14;101097.09;350465;28;68943;-68
2021/07/11 00:16:40;;;;;;;3.03;1.92;;;;;;;17.27;63.29;101094.56;348550;28;137824;-64
2021/07/11 00:16:53;;;;;;;3.08;2.55;;;;;;;17.31;63.32;101100.53;351206;27;68214;-70
2021/07/11 00:17:06;;;;;;;3.58;3.03;;;;;;;17.25;63.04;101098.28;351113;27;68525;-64
2021/07/11 00:17:18;;;;;;;3.58;3.05;;;;;;;17.28;63.48;101098.06;351107;27;68904;-64
2021/07/11 00:17:32;;;;;;;3.40;2.63;;;;;;;17.28;63.44;101095.38;350896;28;70054;-65
2021/07/11 00:17:47;;;;;;;3.55;2.53;;;;;;;17.18;63.38;101102.34;349696;28;115004;-64
2021/07/11 00:18:02;;;;;;;3.55;2.50;;;;;;;16.79;64.35;101099.59;350866;28;69067;-64
2021/07/11 00:18:15;;;;;;;2.90;2.42;;;;;;;16.74;64.96;101097.22;348005;28;115063;-65
2021/07/11 00:18:28;;;;;;;2.92;2.40;;;;;;;16.50;65.67;101093.53;348162;28;66257;-64
2021/07/11 00:18:41;;;;;;;3.65;2.40;;;;;;;16.52;65.78;101099.66;347339;28;93087;-69
2021/07/11 00:18:54;;;;;;;3.35;2.30;;;;;;;16.53;65.91;101098.69;348817;28;46142;-70
2021/07/11 00:19:06;;;;;;;2.33;2.10;;;;;;;16.64;65.68;101098.81;348179;28;68839;-64
2021/07/11 00:19:19;;;;;;;2.90;2.10;;;;;;;16.67;65.89;101087.94;348109;28;68482;-65
2021/07/11 00:19:32;;;;;;;3.42;2.15;;;;;;;16.63;65.96;101094.44;348663;28;69036;-65
2021/07/11 00:19:44;;;;;;;3.05;2.15;;;;;;;16.53;66.08;101106.69;349661;28;68816;-67
2021/07/11 00:19:57;;;;;;;2.45;2.00;;;;;;;16.34;66.42;101094.56;350231;28;46135;-64
2021/07/11 00:20:14;;;;;;;2.78;2.03;;;;;;;16.33;66.76;101092.00;349494;28;70324;-68
2021/07/11 00:20:29;;;;;;;3.20;2.00;;;;;;;16.21;66.88;101094.53;348477;28;138758;-70
2021/07/11 00:20:42;;;;;;;3.35;2.00;;;;;;;16.08;67.43;101096.28;351107;27;69019;-67
2021/07/11 00:20:54;;;;;;;2.95;1.92;;;;;;;16.03;67.74;101087.72;351068;27;69893;-64
2021/07/11 00:21:07;;;;;;;3.13;1.70;;;;;;;16.04;68.03;101097.41;351157;27;67878;-66
2021/07/11 00:21:20;;;;;;;3.72;1.70;;;;;;;16.14;67.97;101101.19;352025;27;44812;-70
2021/07/11 00:21:32;;;;;;;3.72;2.00;;;;;;;16.21;67.75;101102.53;350706;28;68950;-65
2021/07/11 00:21:45;;;;;;;3.70;2.00;;;;;;;16.20;67.57;101095.47;350961;28;68830;-67
2021/07/11 00:21:58;;;;;;;2.58;1.90;;;;;;;16.21;67.62;101085.66;350789;28;68947;-66
2021/07/11 00:22:10;;;;;;;2.55;2.00;;;;;;;16.25;67.38;101098.69;351795;28;45226;-63
2021/07/11 00:22:23;;;;;;;3.90;2.20;;;;;;;16.19;67.45;101101.75;350932;28;69985;-64
2021/07/11 00:22:36;;;;;;;4.18;2.30;;;;;;;16.15;67.73;101097.56;351000;28;68323;-65
2021/07/11 00:22:49;;;;;;;3.00;2.10;;;;;;;16.25;67.57;101082.72;350686;28;70012;-68
2021/07/11 00:23:02;;;;;;;3.53;2.20;;;;;;;16.40;67.28;101088.84;351037;28;68115;-66
2021/07/11 00:23:15;;;;;;;3.95;2.28;;;;;;;16.45;67.12;101093.84;351086;28;68287;-64
2021/07/11 00:23:27;;;;;;;3.60;2.22;;;;;;;16.55;66.77;101094.94;350999;28;68083;-65
2021/07/11 00:23:41;;;;;;;4.03;2.25;;;;;;;16.63;66.54;101091.78;350290;28;92013;-64
2021/07/11 00:23:54;;;;;;;5.10;2.30;;;;;;;16.55;66.49;101091.44;351696;28;45470;-64
2021/07/11 00:24:07;;;;;;;4.57;2.30;;;;;;;16.33;67.10;101092.84;350995;28;70038;-64
2021/07/11 00:24:19;;;;;;;3.25;2.00;;;;;;;16.25;67.51;101088.03;349375;28;68932;-64
2021/07/11 00:24:33;;;;;;;3.35;2.15;;;;;;;16.25;67.76;101084.50;348049;28;70083;-65
2021/07/11 00:24:47;;;;;;;3.67;2.40;;;;;;;16.26;67.84;101091.56;348725;28;91822;-64
2021/07/11 00:24:59;;;;;;;3.67;2.38;;;;;;;16.40;67.69;101087.97;349456;28;70087;-64
2021/07/11 00:25:13;;;;;;;4.05;2.17;;;;;;;16.47;67.62;101080.44;349569;28;67719;-64
2021/07/11 00:25:26;;;;;;;3.60;2.03;;;;;;;16.54;67.08;101092.38;348801;28;90817;-64
2021/07/11 00:25:40;;;;;;;3.78;1.98;;;;;;;16.62;66.87;101082.94;347096;28;93038;-66
2021/07/11 00:25:53;;;;;;;4.80;1.95;;;;;;;16.72;66.77;101091.16;349269;28;69000;-64
2021/07/11 00:26:05;;;;;;;4.82;2.10;;;;;;;16.77;66.33;101093.50;348160;28;69850;-65
2021/07/11 00:26:18;;;;;;;4.13;2.10;;;;;;;16.65;66.38;101089.88;349076;28;44962;-64
2021/07/11 00:26:31;;;;;;;3.38;1.98;;;;;;;16.40;67.03;101086.19;349816;28;68853;-64
2021/07/11 00:26:43;;;;;;;3.47;1.88;;;;;;;16.27;67.16;101075.44;350623;28;66066;-65
2021/07/11 00:26:56;;;;;;;3.35;2.00;;;;;;;16.21;68.16;101083.00;350960;28;69473;-65
2021/07/11 00:27:11;;;;;;;3.53;2.22;;;;;;;16.24;68.37;101086.31;350386;28;46091;-64
2021/07/11 00:27:24;;;;;;;5.65;2.30;;;;;;;16.34;68.01;101091.91;347182;28;137468;-64
2021/07/11 00:27:37;;;;;;;4.88;2.28;;;;;;;16.45;67.75;101085.88;349525;28;70020;-65
2021/07/11 00:27:53;;;;;;;2.55;2.20;;;;;;;16.45;67.70;101084.03;347019;28;137823;-66
2021/07/11 00:28:06;;;;;;;2.83;2.35;;;;;;;16.54;67.61;101087.06;349606;28;69763;-69
2021/07/11 00:28:18;;;;;;;3.75;2.42;;;;;;;16.60;67.64;101086.66;349554;28;70286;-64
2021/07/11 00:28:31;;;;;;;6.00;2.35;;;;;;;16.58;67.49;101091.22;350370;28;45971;-64
2021/07/11 00:28:45;;;;;;;5.95;2.40;;;;;;;16.53;67.71;101085.38;350010;28;68460;-70
2021/07/11 00:28:58;;;;;;;4.40;2.90;;;;;;;16.58;67.56;101088.56;350140;28;91942;-65
2021/07/11 00:29:10;;;;;;;4.85;3.00;;;;;;;16.44;67.92;101089.47;351114;28;68858;-72
2021/07/11 00:29:23;;;;;;;4.25;2.55;;;;;;;16.51;67.58;101092.59;351720;27;46002;-64
2021/07/11 00:29:36;;;;;;;3.85;2.60;;;;;;;16.57;67.73;101084.19;351280;27;68982;-67
2021/07/11 00:29:49;;;;;;;4.03;2.50;;;;;;;16.66;67.41;101086.22;350149;28;91958;-65
2021/07/11 00:30:03;;;;;;;3.80;2.35;;;;;;;16.70;67.28;101087.72;351851;28;46055;-64
2021/07/11 00:30:18;;;;;;;3.60;2.45;;;;;;;16.75;67.30;101088.28;349268;28;114675;-67
2021/07/11 00:30:31;;;;;;;3.53;2.45;;;;;;;16.78;66.57;101085.41;349960;28;93060;-63
2021/07/11 00:30:44;;;;;;;3.40;2.33;;;;;;;16.63;67.02;101083.78;350865;28;69539;-63
2021/07/11 00:30:56;;;;;;;3.28;2.10;;;;;;;16.55;67.60;101080.78;350786;27;68934;-63
2021/07/11 00:31:09;;;;;;;3.38;2.25;;;;;;;16.52;67.75;101083.66;350893;28;69035;-67
2021/07/11 00:31:22;;;;;;;3.60;2.40;;;;;;;16.43;67.99;101080.63;350932;28;69019;-64
2021/07/11 00:31:36;;;;;;;4.60;2.45;;;;;;;16.38;68.24;101080.09;349607;28;115916;-63
2021/07/11 00:31:50;;;;;;;4.32;2.40;;;;;;;16.43;68.34;101079.75;351357;27;68972;-65
2021/07/11 00:32:06;;;;;;;2.63;2.10;;;;;;;16.44;68.62;101082.34;352242;27;68733;-64
2021/07/11 00:32:19;;;;;;;3.38;2.10;;;;;;;16.42;68.58;101078.06;349630;27;139112;-67
2021/07/11 00:32:32;;;;;;;4.32;2.42;;;;;;;16.53;68.28;101083.53;352344;27;68984;-63
2021/07/11 00:32:45;;;;;;;4.35;2.40;;;;;;;16.53;68.13;101080.88;352459;27;69560;-63
2021/07/11 00:32:58;;;;;;;4.15;2.20;;;;;;;16.57;68.09;101081.53;352282;27;68385;-64
2021/07/11 00:33:11;;;;;;;3.53;2.10;;;;;;;16.67;67.80;101071.94;352301;27;70260;-66
2021/07/11 00:33:23;;;;;;;2.83;1.92;;;;;;;16.73;67.56;101081.34;352249;27;68438;-64
2021/07/11 00:33:36;;;;;;;3.13;2.00;;;;;;;16.53;67.71;101072.88;352412;27;67882;-63
2021/07/11 00:33:49;;;;;;;3.58;2.20;;;;;;;16.48;68.06;101090.13;352299;27;68958;-69
2021/07/11 00:34:02;;;;;;;3.45;2.20;;;;;;;16.41;68.24;101081.69;352332;27;68964;-67
2021/07/11 00:34:15;;;;;;;3.47;2.13;;;;;;;16.37;68.31;101081.03;352662;27;70374;-69
2021/07/11 00:34:27;;;;;;;4.18;2.33;;;;;;;16.29;68.61;101083.34;352216;27;69954;-63
2021/07/11 00:34:40;;;;;;;4.68;2.20;;;;;;;16.25;68.68;101077.38;353299;27;45666;-64
2021/07/11 00:34:53;;;;;;;3.45;1.98;;;;;;;16.28;68.79;101081.66;352489;27;69957;-65
2021/07/11 00:35:06;;;;;;;3.13;1.90;;;;;;;16.20;68.85;101078.63;352697;27;68479;-64
2021/07/11 00:35:20;;;;;;;3.10;1.80;;;;;;;16.09;69.38;101079.34;351780;27;91533;-64
2021/07/11 00:35:33;;;;;;;3.78;1.73;;;;;;;16.19;69.32;101071.59;352404;27;68677;-64
2021/07/11 00:35:45;;;;;;;4.70;1.80;;;;;;;16.28;69.25;101081.66;352254;27;68467;-66
2021/07/11 00:35:58;;;;;;;3.50;1.88;;;;;;;16.25;68.83;101082.72;352138;27;70241;-67
2021/07/11 00:36:13;;;;;;;5.00;2.22;;;;;;;16.13;69.56;101093.28;351098;27;114046;-63
2021/07/11 00:36:26;;;;;;;5.10;2.17;;;;;;;16.01;69.35;101084.31;351248;27;70089;-64
2021/07/11 00:36:39;;;;;;;4.32;1.95;;;;;;;16.00;69.82;101080.78;351997;27;68749;-67
2021/07/11 00:36:52;;;;;;;2.85;1.90;;;;;;;15.96;70.05;101078.41;352349;27;67683;-64
2021/07/11 00:37:05;;;;;;;2.92;2.08;;;;;;;16.01;69.79;101085.16;352665;27;68992;-63
2021/07/11 00:37:18;;;;;;;2.42;2.03;;;;;;;16.10;69.87;101089.03;352445;27;69672;-67
2021/07/11 00:37:31;;;;;;;2.63;1.92;;;;;;;16.07;69.64;101082.09;352338;27;68624;-63
2021/07/11 00:37:44;;;;;;;4.25;1.85;;;;;;;16.04;70.21;101084.09;352557;27;67841;-64
2021/07/11 00:37:57;;;;;;;4.97;1.85;;;;;;;16.11;69.86;101082.75;352567;27;67825;-63
2021/07/11 00:38:09;;;;;;;6.38;2.00;;;;;;;16.05;69.88;101085.81;352595;27;68324;-64
2021/07/11 00:38:23;;;;;;;6.03;1.90;;;;;;;16.01;70.39;101082.50;353334;27;46082;-63
2021/07/11 00:38:38;;;;;;;3.30;1.60;;;;;;;16.16;69.81;101082.47;350224;27;137602;-65
2021/07/11 00:38:50;;;;;;;2.60;1.63;;;;;;;16.22;69.60;101079.38;352594;27;69881;-66
2021/07/11 00:39:06;;;;;;;2.50;1.75;;;;;;;16.11;69.80;101086.28;350973;27;113873;-66
2021/07/11 00:39:19;;;;;;;3.88;1.85;;;;;;;15.95;69.91;101085.56;351993;27;91981;-63
2021/07/11 00:39:34;;;;;;;3.70;1.70;;;;;;;16.01;70.19;101085.16;349711;27;116100;-65
2021/07/11 00:39:48;;;;;;;3.25;1.75;;;;;;;16.01;70.22;101093.16;351125;27;69111;-64
2021/07/11 00:40:05;;;;;;;3.22;1.88;;;;;;;15.97;70.15;101083.63;348626;27;139238;-64
2021/07/11 00:40:21;;;;;;;2.70;1.73;;;;;;;15.83;70.94;101095.19;348730;27;137395;-63
2021/07/11 00:40:34;;;;;;;3.08;1.70;;;;;;;15.87;70.76;101090.53;351025;27;68863;-64
2021/07/11 00:40:47;;;;;;;3.30;1.70;;;;;;;15.85;70.82;101084.44;351112;27;69995;-63
2021/07/11 00:41:04;;;;;;;3.65;1.70;;;;;;;15.93;70.89;101085.63;348251;27;160780;-63
2021/07/11 00:41:19;;;;;;;3.78;1.73;;;;;;;16.04;70.25;101089.44;351182;27;68358;-63
2021/07/11 00:41:38;;;;;;;3.85;1.90;;;;;;;15.94;70.22;101089.16;348550;27;138881;-63
2021/07/11 00:41:51;;;;;;;3.35;1.98;;;;;;;16.02;70.43;101084.19;348683;27;137731;-64
2021/07/11 00:42:06;;;;;;;3.63;1.98;;;;;;;16.00;69.98;101088.75;349896;27;115027;-63
2021/07/11 00:42:19;;;;;;;4.03;2.15;;;;;;;15.92;70.23;101083.06;351108;27;67792;-63
2021/07/11 00:42:31;;;;;;;3.45;1.90;;;;;;;15.89;70.85;101085.94;351015;27;67773;-64
2021/07/11 00:42:44;;;;;;;3.83;1.70;;;;;;;15.97;70.55;101082.78;351130;27;69026;-64
2021/07/11 00:42:57;;;;;;;5.10;1.85;;;;;;;15.96;70.42;101081.91;351173;27;68610;-70
2021/07/11 00:43:10;;;;;;;5.25;1.85;;;;;;;15.91;70.82;101084.91;349804;28;70003;-64
2021/07/11 00:43:22;;;;;;;4.05;1.90;;;;;;;15.91;70.84;101089.38;349589;28;67793;-63
2021/07/11 00:43:37;;;;;;;3.10;1.83;;;;;;;15.96;70.93;101086.41;348193;28;116123;-63
2021/07/11 00:43:50;;;;;;;2.88;1.88;;;;;;;16.02;70.99;101083.31;350645;28;45455;-63
2021/07/11 00:44:03;;;;;;;2.53;1.92;;;;;;;16.00;70.44;101082.59;349650;28;70327;-64
2021/07/11 00:44:15;;;;;;;3.75;2.10;;;;;;;15.97;70.82;101083.63;349765;28;67836;-66
2021/07/11 00:44:28;;;;;;;3.42;2.00;;;;;;;15.95;70.60;101085.56;349650;28;69996;-63
2021/07/11 00:44:41;;;;;;;2.70;1.90;;;;;;;16.07;70.38;101089.22;350679;28;47199;-63
2021/07/11 00:44:54;;;;;;;3.72;1.90;;;;;;;16.19;70.08;101087.59;349719;28;68911;-63
2021/07/11 00:45:08;;;;;;;5.05;1.85;;;;;;;16.24;69.98;101086.31;349842;28;68835;-65
2021/07/11 00:45:24;;;;;;;5.75;2.60;;;;;;;16.18;70.21;101085.88;348643;27;138896;-66
2021/07/11 00:45:36;;;;;;;4.75;2.78;;;;;;;16.22;69.70;101074.88;351161;27;67779;-65
2021/07/11 00:45:49;;;;;;;3.45;2.30;;;;;;;16.35;69.70;101087.41;351496;27;68753;-63
2021/07/11 00:46:02;;;;;;;3.58;2.03;;;;;;;16.42;69.32;101083.41;351272;27;67707;-65
2021/07/11 00:46:15;;;;;;;3.25;2.03;;;;;;;16.47;69.24;101083.09;351016;27;68910;-63
2021/07/11 00:46:29;;;;;;;3.83;2.30;;;;;;;16.35;69.08;101085.63;351285;27;67684;-63
2021/07/11 00:46:43;;;;;;;4.50;2.55;;;;;;;16.21;69.38;101080.31;350487;27;92740;-64
2021/07/11 00:46:56;;;;;;;5.22;2.58;;;;;;;16.17;69.72;101084.16;349360;27;115788;-66
2021/07/11 00:47:11;;;;;;;5.75;2.47;;;;;;;16.14;69.62;101087.03;350891;27;67899;-63
2021/07/11 00:47:23;;;;;;;5.05;2.38;;;;;;;16.21;69.84;101080.31;350450;27;93079;-63
2021/07/11 00:47:38;;;;;;;3.40;2.08;;;;;;;16.15;69.94;101086.06;351155;27;70236;-66
2021/07/11 00:47:51;;;;;;;3.35;1.90;;;;;;;16.12;69.83;101081.78;350474;27;92897;-63
2021/07/11 00:48:06;;;;;;;3.53;1.90;;;;;;;16.13;70.05;101087.97;351116;27;68924;-64
2021/07/11 00:48:21;;;;;;;3.15;1.90;;;;;;;16.16;69.93;101087.78;348997;27;137681;-64
2021/07/11 00:48:34;;;;;;;2.83;2.00;;;;;;;16.22;69.98;101080.22;351405;27;69848;-66
2021/07/11 00:48:47;;;;;;;2.65;1.98;;;;;;;16.21;69.77;101080.31;351450;27;68840;-64
2021/07/11 00:49:02;;;;;;;2.78;2.03;;;;;;;16.07;70.16;101087.44;351151;27;68515;-64
2021/07/11 00:49:15;;;;;;;2.75;1.98;;;;;;;15.93;70.50;101082.13;350480;27;114884;-64
2021/07/11 00:49:28;;;;;;;2.67;1.88;;;;;;;15.94;70.52;101084.69;352596;27;68456;-63
2021/07/11 00:49:42;;;;;;;3.35;2.30;;;;;;;15.93;70.77;101084.78;352732;27;69034;-65
2021/07/11 00:49:55;;;;;;;4.02;2.50;;;;;;;16.10;70.34;101083.69;350954;27;114174;-66
2021/07/11 00:50:11;;;;;;;3.50;2.20;;;;;;;16.25;69.87;101080.03;353293;27;46066;-63
2021/07/11 00:50:23;;;;;;;3.28;1.92;;;;;;;16.30;69.47;101077.06;348643;27;138625;-63
2021/07/11 00:50:36;;;;;;;3.75;2.03;;;;;;;16.32;69.48;101083.16;350999;27;68961;-66
2021/07/11 00:50:49;;;;;;;6.02;2.26;;;;;;;16.41;69.33;101082.53;351928;27;45302;-63
2021/07/11 00:51:01;;;;;;;6.22;2.20;;;;;;;16.49;69.14;101083.84;352550;27;46567;-63
2021/07/11 00:51:14;;;;;;;5.28;1.98;;;;;;;16.50;68.99;101080.22;352509;27;67888;-65
2021/07/11 00:51:27;;;;;;;3.28;1.80;;;;;;;16.52;68.71;101078.31;352689;27;68542;-63
2021/07/11 00:51:41;;;;;;;2.75;1.70;;;;;;;16.52;68.60;101076.50;353380;27;45647;-64
2021/07/11 00:51:54;;;;;;;3.75;1.70;;;;;;;16.45;68.59;101078.72;350909;27;114753;-63
2021/07/11 00:52:07;;;;;;;3.70;1.80;;;;;;;16.45;68.88;101078.72;352618;27;69433;-64
2021/07/11 00:52:19;;;;;;;3.10;1.80;;;;;;;16.51;68.67;101076.59;351195;27;70263;-65
2021/07/11 00:52:32;;;;;;;4.35;1.75;;;;;;;16.54;68.71;101073.72;352503;27;70117;-64
2021/07/11 00:52:45;;;;;;;5.20;1.70;;;;;;;16.58;68.57;101072.56;353393;27;44909;-63
2021/07/11 00:53:00;;;;;;;6.30;1.70;;;;;;;16.65;68.40;101079.22;351309;27;114866;-64
2021/07/11 00:53:13;;;;;;;5.65;1.85;;;;;;;16.70;68.29;101071.72;352425;27;69944;-63
2021/07/11 00:53:26;;;;;;;4.30;1.90;;;;;;;16.75;68.09;101076.78;351726;27;91917;-64
2021/07/11 00:53:51;;;;;;;3.42;1.90;;;;;;;16.67;67.97;101071.94;353311;27;45786;-63
2021/07/11 00:54:05;;;;;;;2.70;2.03;;;;;;;16.77;68.02;101078.38;350456;27;137227;-63
2021/07/11 00:54:20;;;;;;;3.40;1.95;;;;;;;16.79;67.67;101075.59;352594;27;69022;-64
2021/07/11 00:54:34;;;;;;;3.97;2.00;;;;;;;16.84;68.01;101069.94;350952;27;116005;-63
2021/07/11 00:54:47;;;;;;;3.95;2.03;;;;;;;16.76;67.64;101070.44;351713;27;92059;-64
2021/07/11 00:54:59;;;;;;;5.57;2.13;;;;;;;16.71;67.67;101077.94;353528;27;45310;-63
2021/07/11 00:55:15;;;;;;;6.13;2.40;;;;;;;16.74;67.77;101073.22;352610;27;70050;-65
2021/07/11 00:55:28;;;;;;;4.13;2.25;;;;;;;16.77;67.44;101073.03;350083;27;138830;-63
2021/07/11 00:55:41;;;;;;;4.22;2.22;;;;;;;16.83;67.62;101065.56;352711;27;67848;-64
2021/07/11 00:55:53;;;;;;;4.20;2.10;;;;;;;16.77;67.27;101072.16;352652;27;70016;-64
2021/07/11 00:56:06;;;;;;;3.33;1.85;;;;;;;16.57;67.60;101071.72;351881;27;68975;-63
2021/07/11 00:56:19;;;;;;;2.70;1.73;;;;;;;16.50;68.01;101074.88;353242;27;47419;-63
2021/07/11 00:56:32;;;;;;;3.20;1.90;;;;;;;16.56;67.84;101070.00;351814;27;92067;-63
2021/07/11 00:56:45;;;;;;;3.17;1.88;;;;;;;16.30;68.17;101070.88;352551;27;67925;-64
2021/07/11 00:56:58;;;;;;;3.95;1.80;;;;;;;16.23;68.73;101071.28;353527;27;44806;-64
2021/07/11 00:57:11;;;;;;;4.53;1.70;;;;;;;16.34;68.69;101069.72;351202;27;68853;-63
2021/07/11 00:57:23;;;;;;;3.68;1.70;;;;;;;16.39;68.62;101076.47;351092;27;68903;-65
2021/07/11 00:57:36;;;;;;;2.42;1.67;;;;;;;16.50;68.24;101080.22;350185;28;45507;-64
2021/07/11 00:57:50;;;;;;;3.85;1.70;;;;;;;16.58;68.35;101075.22;348451;28;70327;-63
2021/07/11 00:58:03;;;;;;;4.97;1.80;;;;;;;16.66;68.16;101072.88;349062;28;91248;-63
2021/07/11 00:58:16;;;;;;;3.50;1.60;;;;;;;16.59;67.91;101074.28;350925;27;67898;-63
2021/07/11 00:58:28;;;;;;;3.60;1.70;;;;;;;16.49;68.02;101071.38;351193;27;68830;-63
2021/07/11 00:58:41;;;;;;;2.75;1.75;;;;;;;16.44;68.31;101069.03;350764;27;70315;-63
2021/07/11 00:58:55;;;;;;;2.20;1.67;;;;;;;16.48;68.27;101076.81;350568;28;46043;-64
2021/07/11 00:59:08;;;;;;;2.42;1.50;;;;;;;16.45;68.35;101073.38;348169;28;114967;-63
2021/07/11 00:59:21;;;;;;;2.68;1.60;;;;;;;16.40;68.38;101074.63;350609;28;46181;-64
2021/07/11 00:59:36;;;;;;;3.47;1.73;;;;;;;16.40;68.57;101079.97;349872;28;69565;-63
2021/07/11 00:59:48;;;;;;;4.05;1.80;;;;;;;16.44;68.62;101069.03;350317;27;91833;-63
2021/07/11 01:00:06;;;;;;;3.33;1.90;;;;;;;16.50;68.21;101069.53;351107;27;70407;-63
2021/07/11 01:00:19;;;;;;;2.40;1.80;;;;;;;16.49;68.34;101070.53;348029;27;159869;-63
2021/07/11 01:00:33;;;;;;;2.33;1.70;;;;;;;16.37;68.59;101075.69;350388;27;93287;-63
2021/07/11 01:00:54;;;;;;;2.60;1.60;;;;;;;16.39;68.68;101070.25;350404;27;91843;-63
2021/07/11 01:01:08;;;;;;;3.50;1.90;;;;;;;16.50;68.38;101072.22;348905;27;138375;-64
2021/07/11 01:01:33;;;;;;;3.78;1.92;;;;;;;16.53;68.27;101070.22;351216;27;67807;-64
2021/07/11 01:01:53;;;;;;;4.45;1.70;;;;;;;16.46;68.38;101071.59;349004;27;137134;-63
2021/07/11 01:02:13;;;;;;;3.42;1.73;;;;;;;16.54;68.23;101065.72;348773;27;136079;-64
2021/07/11 01:02:35;;;;;;;2.50;1.74;;;;;;;16.49;68.44;101070.53;347786;27;160479;-64
2021/07/11 01:03:04;;;;;;;3.00;1.73;;;;;;;16.26;68.79;101064.91;348069;27;159496;-64
2021/07/11 01:03:25;;;;;;;2.90;1.60;;;;;;;16.07;69.56;101068.78;348850;27;137093;-63
2021/07/11 01:03:39;;;;;;;3.20;1.70;;;;;;;16.13;69.52;101064.00;349019;27;137341;-63
2021/07/11 01:03:57;;;;;;;3.28;1.70;;;;;;;16.14;69.58;101063.03;350201;27;93280;-65
2021/07/11 01:04:29;;;;;;;3.05;1.73;;;;;;;16.28;69.03;101060.34;348782;27;136871;-64
2021/07/11 01:04:48;;;;;;;3.60;1.80;;;;;;;16.35;69.19;101063.41;349169;27;137396;-65